sensor_id;sensor_type;location;lat;lon;timestamp;temperature;humidity
13892;DHT22;7016;48.172;8.058;2024-01-10T00:02:26;0.40;99.90
13892;DHT22;7016;48.172;8.058;2024-01-10T00:05:13;0.30;99.90
13892;DHT22;7016;48.172;8.058;2024-01-10T00:07:59;0.30;99.90
13892;DHT22;7016;48.172;8.058;2024-01-10T00:10:45;0.10;99.90
13892;DHT22;7016;48.172;8.058;2024-01-10T00:13:32;0.10;99.90
13892;DHT22;7016;48.172;8.058;2024-01-10T00:16:18;0.10;99.90
13892;DHT22;7016;48.172;8.058;2024-01-10T00:19:05;0.20;99.90
13892;DHT22;7016;48.172;8.058;2024-01-10T00:21:51;0.10;99.90
13892;DHT22;7016;48.172;8.058;2024-01-10T00:24:37;-0.10;99.90
13892;DHT22;7016;48.172;8.058;2024-01-10T00:27:23;-0.20;99.90
13892;DHT22;7016;48.172;8.058;2024-01-10T00:30:09;-0.20;99.90
13892;DHT22;7016;48.172;8.058;2024-01-10T00:32:56;-0.10;99.90
13892;DHT22;7016;48.172;8.058;2024-01-10T00:35:42;0.00;99.90
13892;DHT22;7016;48.172;8.058;2024-01-10T00:38:28;-0.10;99.90
13892;DHT22;7016;48.172;8.058;2024-01-10T00:41:14;-0.10;99.90
13892;DHT22;7016;48.172;8.058;2024-01-10T00:44:00;0.00;99.90
13892;DHT22;7016;48.172;8.058;2024-01-10T00:46:46;0.00;99.90
13892;DHT22;7016;48.172;8.058;2024-01-10T00:49:33;0.10;99.90
13892;DHT22;7016;48.172;8.058;2024-01-10T00:52:19;0.00;99.90
13892;DHT22;7016;48.172;8.058;2024-01-10T00:55:05;-0.10;99.90
13892;DHT22;7016;48.172;8.058;2024-01-10T00:57:51;1.90;99.90
13892;DHT22;7016;48.172;8.058;2024-01-10T01:00:37;0.00;99.90
13892;DHT22;7016;48.172;8.058;2024-01-10T01:03:24;0.00;99.90
13892;DHT22;7016;48.172;8.058;2024-01-10T01:06:10;0.00;99.90
13892;DHT22;7016;48.172;8.058;2024-01-10T01:08:56;0.00;99.90
13892;DHT22;7016;48.172;8.058;2024-01-10T01:11:44;-0.10;99.90
13892;DHT22;7016;48.172;8.058;2024-01-10T01:14:30;-0.20;99.90
13892;DHT22;7016;48.172;8.058;2024-01-10T01:17:17;-0.20;99.90
13892;DHT22;7016;48.172;8.058;2024-01-10T01:20:03;0.00;99.90
13892;DHT22;7016;48.172;8.058;2024-01-10T01:22:50;-0.20;99.90
13892;DHT22;7016;48.172;8.058;2024-01-10T01:25:36;-0.40;99.90
13892;DHT22;7016;48.172;8.058;2024-01-10T01:28:23;-0.40;99.90
13892;DHT22;7016;48.172;8.058;2024-01-10T01:31:09;-0.40;99.90
13892;DHT22;7016;48.172;8.058;2024-01-10T01:33:55;-0.20;99.90
13892;DHT22;7016;48.172;8.058;2024-01-10T01:36:41;-0.10;99.90
13892;DHT22;7016;48.172;8.058;2024-01-10T01:39:28;-0.10;99.90
13892;DHT22;7016;48.172;8.058;2024-01-10T01:42:14;-0.10;99.90
13892;DHT22;7016;48.172;8.058;2024-01-10T01:45:01;0.00;99.90
13892;DHT22;7016;48.172;8.058;2024-01-10T01:47:47;0.00;99.90
13892;DHT22;7016;48.172;8.058;2024-01-10T01:50:33;0.10;99.90
13892;DHT22;7016;48.172;8.058;2024-01-10T01:53:20;0.10;99.90
13892;DHT22;7016;48.172;8.058;2024-01-10T01:56:07;0.00;99.90
13892;DHT22;7016;48.172;8.058;2024-01-10T01:58:54;0.10;99.90
13892;DHT22;7016;48.172;8.058;2024-01-10T02:01:40;-0.10;99.90
13892;DHT22;7016;48.172;8.058;2024-01-10T02:04:28;-0.10;99.90
13892;DHT22;7016;48.172;8.058;2024-01-10T02:07:14;0.00;99.90
13892;DHT22;7016;48.172;8.058;2024-01-10T02:10:00;0.00;99.90
13892;DHT22;7016;48.172;8.058;2024-01-10T02:12:47;0.00;99.90
13892;DHT22;7016;48.172;8.058;2024-01-10T02:15:33;0.00;99.90
13892;DHT22;7016;48.172;8.058;2024-01-10T02:18:20;0.10;99.90
13892;DHT22;7016;48.172;8.058;2024-01-10T02:21:06;0.20;99.90
13892;DHT22;7016;48.172;8.058;2024-01-10T02:23:52;0.10;99.90
13892;DHT22;7016;48.172;8.058;2024-01-10T02:26:39;0.10;99.90
13892;DHT22;7016;48.172;8.058;2024-01-10T02:29:26;0.20;99.90
13892;DHT22;7016;48.172;8.058;2024-01-10T02:32:12;0.20;99.90
13892;DHT22;7016;48.172;8.058;2024-01-10T02:34:58;0.20;99.90
13892;DHT22;7016;48.172;8.058;2024-01-10T02:37:45;0.20;99.90
13892;DHT22;7016;48.172;8.058;2024-01-10T02:40:31;0.10;99.90
13892;DHT22;7016;48.172;8.058;2024-01-10T02:43:17;0.10;99.90
13892;DHT22;7016;48.172;8.058;2024-01-10T02:46:04;0.10;99.90
13892;DHT22;7016;48.172;8.058;2024-01-10T02:48:50;0.10;99.90
13892;DHT22;7016;48.172;8.058;2024-01-10T02:51:36;0.10;99.90
13892;DHT22;7016;48.172;8.058;2024-01-10T02:54:22;0.00;99.90
13892;DHT22;7016;48.172;8.058;2024-01-10T02:57:08;0.00;99.90
13892;DHT22;7016;48.172;8.058;2024-01-10T02:59:54;0.00;99.90
13892;DHT22;7016;48.172;8.058;2024-01-10T03:02:41;0.10;99.90
13892;DHT22;7016;48.172;8.058;2024-01-10T03:05:27;0.10;99.90
13892;DHT22;7016;48.172;8.058;2024-01-10T03:08:13;0.10;99.90
13892;DHT22;7016;48.172;8.058;2024-01-10T03:10:59;0.10;99.90
13892;DHT22;7016;48.172;8.058;2024-01-10T03:13:47;0.10;99.90
13892;DHT22;7016;48.172;8.058;2024-01-10T03:16:33;0.00;99.90
13892;DHT22;7016;48.172;8.058;2024-01-10T03:19:19;0.10;99.90
13892;DHT22;7016;48.172;8.058;2024-01-10T03:22:06;0.00;99.90
13892;DHT22;7016;48.172;8.058;2024-01-10T03:24:52;0.10;99.90
13892;DHT22;7016;48.172;8.058;2024-01-10T03:27:38;0.10;99.90
13892;DHT22;7016;48.172;8.058;2024-01-10T03:30:24;0.00;99.90
13892;DHT22;7016;48.172;8.058;2024-01-10T03:33:10;0.00;99.90
13892;DHT22;7016;48.172;8.058;2024-01-10T03:35:57;0.00;99.90
13892;DHT22;7016;48.172;8.058;2024-01-10T03:38:43;-0.10;99.90
13892;DHT22;7016;48.172;8.058;2024-01-10T03:41:30;-0.20;99.90
13892;DHT22;7016;48.172;8.058;2024-01-10T03:44:16;-0.20;99.90
13892;DHT22;7016;48.172;8.058;2024-01-10T03:47:02;-0.20;99.90
13892;DHT22;7016;48.172;8.058;2024-01-10T03:49:48;-0.20;99.90
13892;DHT22;7016;48.172;8.058;2024-01-10T03:52:35;-0.20;99.90
13892;DHT22;7016;48.172;8.058;2024-01-10T03:55:21;-0.20;99.90
13892;DHT22;7016;48.172;8.058;2024-01-10T03:58:07;-0.20;99.90
13892;DHT22;7016;48.172;8.058;2024-01-10T04:00:53;-0.20;99.90
13892;DHT22;7016;48.172;8.058;2024-01-10T04:03:39;-0.30;99.90
13892;DHT22;7016;48.172;8.058;2024-01-10T04:06:28;-0.30;99.90
13892;DHT22;7016;48.172;8.058;2024-01-10T04:09:18;-0.60;99.90
13892;DHT22;7016;48.172;8.058;2024-01-10T04:12:05;-0.80;99.90
13892;DHT22;7016;48.172;8.058;2024-01-10T04:14:51;-0.70;99.90
13892;DHT22;7016;48.172;8.058;2024-01-10T04:17:37;-0.70;99.90
13892;DHT22;7016;48.172;8.058;2024-01-10T04:20:24;-0.90;99.90
13892;DHT22;7016;48.172;8.058;2024-01-10T04:23:10;-0.80;99.90
13892;DHT22;7016;48.172;8.058;2024-01-10T04:25:56;-0.80;99.90
13892;DHT22;7016;48.172;8.058;2024-01-10T04:28:42;-0.80;99.90
13892;DHT22;7016;48.172;8.058;2024-01-10T04:31:29;-1.00;99.90
13892;DHT22;7016;48.172;8.058;2024-01-10T04:34:15;-1.00;99.90
13892;DHT22;7016;48.172;8.058;2024-01-10T04:37:01;-1.00;99.90
13892;DHT22;7016;48.172;8.058;2024-01-10T04:39:47;-1.00;99.90
13892;DHT22;7016;48.172;8.058;2024-01-10T04:42:33;-1.00;99.90
13892;DHT22;7016;48.172;8.058;2024-01-10T04:45:20;-0.90;99.90
13892;DHT22;7016;48.172;8.058;2024-01-10T04:48:06;-0.80;99.90
13892;DHT22;7016;48.172;8.058;2024-01-10T04:50:52;-1.00;99.90
13892;DHT22;7016;48.172;8.058;2024-01-10T04:53:38;-0.80;99.90
13892;DHT22;7016;48.172;8.058;2024-01-10T04:56:26;-0.80;99.90
13892;DHT22;7016;48.172;8.058;2024-01-10T04:59:12;-0.80;99.90
13892;DHT22;7016;48.172;8.058;2024-01-10T05:01:59;-0.80;99.90
13892;DHT22;7016;48.172;8.058;2024-01-10T05:04:45;-0.70;99.90
13892;DHT22;7016;48.172;8.058;2024-01-10T05:07:31;-0.80;99.90
13892;DHT22;7016;48.172;8.058;2024-01-10T05:10:17;-0.80;99.90
13892;DHT22;7016;48.172;8.058;2024-01-10T05:13:04;-0.80;99.90
13892;DHT22;7016;48.172;8.058;2024-01-10T05:15:50;-0.90;99.90
13892;DHT22;7016;48.172;8.058;2024-01-10T05:18:36;-0.80;99.90
13892;DHT22;7016;48.172;8.058;2024-01-10T05:21:22;-0.80;99.90
13892;DHT22;7016;48.172;8.058;2024-01-10T05:24:08;-0.80;99.90
13892;DHT22;7016;48.172;8.058;2024-01-10T05:26:55;-0.70;99.90
13892;DHT22;7016;48.172;8.058;2024-01-10T05:29:41;-0.60;99.90
13892;DHT22;7016;48.172;8.058;2024-01-10T05:32:27;-0.60;99.90
13892;DHT22;7016;48.172;8.058;2024-01-10T05:35:13;-0.60;99.90
13892;DHT22;7016;48.172;8.058;2024-01-10T05:37:59;-0.70;99.90
13892;DHT22;7016;48.172;8.058;2024-01-10T05:40:46;-0.70;99.90
13892;DHT22;7016;48.172;8.058;2024-01-10T05:43:32;-0.90;99.90
13892;DHT22;7016;48.172;8.058;2024-01-10T05:46:18;-0.90;99.90
13892;DHT22;7016;48.172;8.058;2024-01-10T05:49:06;-0.90;99.90
13892;DHT22;7016;48.172;8.058;2024-01-10T05:51:52;-0.70;99.90
13892;DHT22;7016;48.172;8.058;2024-01-10T05:54:39;-0.60;99.90
13892;DHT22;7016;48.172;8.058;2024-01-10T05:57:25;-0.60;99.90
13892;DHT22;7016;48.172;8.058;2024-01-10T06:00:12;-0.50;99.90
13892;DHT22;7016;48.172;8.058;2024-01-10T06:05:45;-0.40;99.90
13892;DHT22;7016;48.172;8.058;2024-01-10T06:08:31;-0.40;99.90
13892;DHT22;7016;48.172;8.058;2024-01-10T06:11:19;-0.40;99.90
13892;DHT22;7016;48.172;8.058;2024-01-10T06:14:05;-0.40;99.90
13892;DHT22;7016;48.172;8.058;2024-01-10T06:16:51;-0.40;99.90
13892;DHT22;7016;48.172;8.058;2024-01-10T06:19:37;-0.60;99.90
13892;DHT22;7016;48.172;8.058;2024-01-10T06:22:23;-0.60;99.90
13892;DHT22;7016;48.172;8.058;2024-01-10T06:25:11;-0.60;99.90
13892;DHT22;7016;48.172;8.058;2024-01-10T06:27:57;-0.70;99.90
13892;DHT22;7016;48.172;8.058;2024-01-10T06:30:43;-0.70;99.90
13892;DHT22;7016;48.172;8.058;2024-01-10T06:33:29;-0.70;99.90
13892;DHT22;7016;48.172;8.058;2024-01-10T06:36:16;-0.70;99.90
13892;DHT22;7016;48.172;8.058;2024-01-10T06:39:02;-0.60;99.90
13892;DHT22;7016;48.172;8.058;2024-01-10T06:41:48;-0.60;99.90
13892;DHT22;7016;48.172;8.058;2024-01-10T06:44:35;-0.80;99.90
13892;DHT22;7016;48.172;8.058;2024-01-10T06:47:21;-0.70;99.90
13892;DHT22;7016;48.172;8.058;2024-01-10T06:50:07;-0.70;99.90
13892;DHT22;7016;48.172;8.058;2024-01-10T06:52:54;-0.60;99.90
13892;DHT22;7016;48.172;8.058;2024-01-10T06:55:40;-0.60;99.90
13892;DHT22;7016;48.172;8.058;2024-01-10T06:58:27;-0.60;99.90
13892;DHT22;7016;48.172;8.058;2024-01-10T07:01:13;-0.60;99.90
13892;DHT22;7016;48.172;8.058;2024-01-10T07:04:00;-0.50;99.90
13892;DHT22;7016;48.172;8.058;2024-01-10T07:06:46;-0.50;99.90
13892;DHT22;7016;48.172;8.058;2024-01-10T07:09:32;-0.50;99.90
13892;DHT22;7016;48.172;8.058;2024-01-10T07:12:18;-0.60;99.90
13892;DHT22;7016;48.172;8.058;2024-01-10T07:15:05;-0.70;99.90
13892;DHT22;7016;48.172;8.058;2024-01-10T07:17:51;-0.70;99.90
13892;DHT22;7016;48.172;8.058;2024-01-10T07:20:37;-0.60;99.90
13892;DHT22;7016;48.172;8.058;2024-01-10T07:23:24;-0.50;99.90
13892;DHT22;7016;48.172;8.058;2024-01-10T07:26:13;-0.50;99.90
13892;DHT22;7016;48.172;8.058;2024-01-10T07:29:00;-0.70;99.90
13892;DHT22;7016;48.172;8.058;2024-01-10T07:31:48;-0.70;99.90
13892;DHT22;7016;48.172;8.058;2024-01-10T07:34:34;-0.80;99.90
13892;DHT22;7016;48.172;8.058;2024-01-10T07:37:20;-0.80;99.90
13892;DHT22;7016;48.172;8.058;2024-01-10T07:40:08;-0.80;99.90
13892;DHT22;7016;48.172;8.058;2024-01-10T07:42:56;-1.00;99.90
13892;DHT22;7016;48.172;8.058;2024-01-10T07:45:42;-1.10;99.90
13892;DHT22;7016;48.172;8.058;2024-01-10T07:48:28;-1.20;99.90
13892;DHT22;7016;48.172;8.058;2024-01-10T07:51:16;-1.30;99.90
13892;DHT22;7016;48.172;8.058;2024-01-10T07:54:02;-1.30;99.90
13892;DHT22;7016;48.172;8.058;2024-01-10T07:56:48;-1.30;99.90
13892;DHT22;7016;48.172;8.058;2024-01-10T07:59:34;-1.30;99.90
13892;DHT22;7016;48.172;8.058;2024-01-10T08:02:20;-1.30;99.90
13892;DHT22;7016;48.172;8.058;2024-01-10T08:05:07;-1.20;99.90
13892;DHT22;7016;48.172;8.058;2024-01-10T08:07:56;-1.20;99.90
13892;DHT22;7016;48.172;8.058;2024-01-10T08:10:44;-1.10;99.90
13892;DHT22;7016;48.172;8.058;2024-01-10T08:13:30;-1.10;99.90
13892;DHT22;7016;48.172;8.058;2024-01-10T08:16:16;-1.10;99.90
13892;DHT22;7016;48.172;8.058;2024-01-10T08:19:04;-1.20;99.90
13892;DHT22;7016;48.172;8.058;2024-01-10T08:21:50;-1.10;99.90
13892;DHT22;7016;48.172;8.058;2024-01-10T08:24:36;-1.20;99.90
13892;DHT22;7016;48.172;8.058;2024-01-10T08:27:22;-1.10;99.90
13892;DHT22;7016;48.172;8.058;2024-01-10T08:30:09;-1.00;99.90
13892;DHT22;7016;48.172;8.058;2024-01-10T08:32:55;-1.00;99.90
13892;DHT22;7016;48.172;8.058;2024-01-10T08:35:42;-1.00;99.90
13892;DHT22;7016;48.172;8.058;2024-01-10T08:38:28;-0.90;99.90
13892;DHT22;7016;48.172;8.058;2024-01-10T08:41:15;-0.90;99.90
13892;DHT22;7016;48.172;8.058;2024-01-10T08:44:01;-0.80;99.90
13892;DHT22;7016;48.172;8.058;2024-01-10T08:46:48;-0.80;99.90
13892;DHT22;7016;48.172;8.058;2024-01-10T08:49:36;-0.80;99.90
13892;DHT22;7016;48.172;8.058;2024-01-10T08:52:24;-0.70;99.90
13892;DHT22;7016;48.172;8.058;2024-01-10T08:55:10;-0.80;99.90
13892;DHT22;7016;48.172;8.058;2024-01-10T08:57:56;-0.70;99.90
13892;DHT22;7016;48.172;8.058;2024-01-10T09:00:42;-0.60;99.90
13892;DHT22;7016;48.172;8.058;2024-01-10T09:03:28;-0.60;99.90
13892;DHT22;7016;48.172;8.058;2024-01-10T09:06:15;-0.60;99.90
13892;DHT22;7016;48.172;8.058;2024-01-10T09:09:03;-0.60;99.90
13892;DHT22;7016;48.172;8.058;2024-01-10T09:11:49;-0.50;99.90
13892;DHT22;7016;48.172;8.058;2024-01-10T09:14:35;-0.40;99.90
13892;DHT22;7016;48.172;8.058;2024-01-10T09:17:21;-0.40;99.90
13892;DHT22;7016;48.172;8.058;2024-01-10T09:20:08;-0.30;99.90
13892;DHT22;7016;48.172;8.058;2024-01-10T09:22:54;-0.30;99.90
13892;DHT22;7016;48.172;8.058;2024-01-10T09:25:40;-0.30;99.90
13892;DHT22;7016;48.172;8.058;2024-01-10T09:28:26;-0.20;99.90
13892;DHT22;7016;48.172;8.058;2024-01-10T09:31:12;-0.20;99.90
13892;DHT22;7016;48.172;8.058;2024-01-10T09:33:59;-0.20;99.90
13892;DHT22;7016;48.172;8.058;2024-01-10T09:36:45;-0.20;99.90
13892;DHT22;7016;48.172;8.058;2024-01-10T09:39:31;-0.10;99.90
13892;DHT22;7016;48.172;8.058;2024-01-10T09:42:17;-0.10;99.90
13892;DHT22;7016;48.172;8.058;2024-01-10T09:45:05;-0.20;99.90
13892;DHT22;7016;48.172;8.058;2024-01-10T09:47:56;-0.10;99.90
13892;DHT22;7016;48.172;8.058;2024-01-10T09:50:43;-0.10;99.90
13892;DHT22;7016;48.172;8.058;2024-01-10T09:53:31;-0.10;99.90
13892;DHT22;7016;48.172;8.058;2024-01-10T09:56:20;-0.10;99.90
13892;DHT22;7016;48.172;8.058;2024-01-10T09:59:07;-0.10;99.90
13892;DHT22;7016;48.172;8.058;2024-01-10T10:01:57;0.00;99.90
13892;DHT22;7016;48.172;8.058;2024-01-10T10:04:57;0.00;99.90
13892;DHT22;7016;48.172;8.058;2024-01-10T10:07:48;0.10;99.90
13892;DHT22;7016;48.172;8.058;2024-01-10T10:10:35;0.20;99.90
13892;DHT22;7016;48.172;8.058;2024-01-10T10:13:25;0.30;99.90
13892;DHT22;7016;48.172;8.058;2024-01-10T10:16:12;0.30;99.90
13892;DHT22;7016;48.172;8.058;2024-01-10T10:18:58;0.30;99.90
13892;DHT22;7016;48.172;8.058;2024-01-10T10:21:44;0.40;99.90
13892;DHT22;7016;48.172;8.058;2024-01-10T10:24:30;0.50;99.90
13892;DHT22;7016;48.172;8.058;2024-01-10T10:27:20;0.50;99.90
13892;DHT22;7016;48.172;8.058;2024-01-10T10:30:06;0.40;99.90
13892;DHT22;7016;48.172;8.058;2024-01-10T10:32:55;0.40;99.90
13892;DHT22;7016;48.172;8.058;2024-01-10T10:35:41;0.70;99.90
13892;DHT22;7016;48.172;8.058;2024-01-10T10:38:27;0.90;99.90
13892;DHT22;7016;48.172;8.058;2024-01-10T10:41:14;0.90;99.90
13892;DHT22;7016;48.172;8.058;2024-01-10T10:44:01;1.10;99.90
13892;DHT22;7016;48.172;8.058;2024-01-10T10:46:53;1.10;99.90
13892;DHT22;7016;48.172;8.058;2024-01-10T10:49:50;1.20;99.90
13892;DHT22;7016;48.172;8.058;2024-01-10T10:52:38;1.10;99.90
13892;DHT22;7016;48.172;8.058;2024-01-10T10:55:27;1.00;99.90
13892;DHT22;7016;48.172;8.058;2024-01-10T10:58:15;1.00;99.90
13892;DHT22;7016;48.172;8.058;2024-01-10T11:01:03;1.00;99.90
13892;DHT22;7016;48.172;8.058;2024-01-10T11:03:51;1.10;99.90
13892;DHT22;7016;48.172;8.058;2024-01-10T11:06:37;1.10;99.90
13892;DHT22;7016;48.172;8.058;2024-01-10T11:09:24;1.00;99.90
13892;DHT22;7016;48.172;8.058;2024-01-10T11:12:34;1.10;99.90
13892;DHT22;7016;48.172;8.058;2024-01-10T11:18:39;1.20;99.90
13892;DHT22;7016;48.172;8.058;2024-01-10T11:21:56;1.20;99.90
13892;DHT22;7016;48.172;8.058;2024-01-10T11:24:46;1.20;99.90
13892;DHT22;7016;48.172;8.058;2024-01-10T11:27:32;1.10;99.90
13892;DHT22;7016;48.172;8.058;2024-01-10T11:30:35;1.20;99.90
13892;DHT22;7016;48.172;8.058;2024-01-10T11:33:26;1.20;99.90
13892;DHT22;7016;48.172;8.058;2024-01-10T11:36:17;1.20;99.90
13892;DHT22;7016;48.172;8.058;2024-01-10T11:39:04;1.30;99.90
13892;DHT22;7016;48.172;8.058;2024-01-10T11:41:52;1.30;99.90
13892;DHT22;7016;48.172;8.058;2024-01-10T11:44:48;1.50;99.90
13892;DHT22;7016;48.172;8.058;2024-01-10T11:47:39;1.50;99.90
13892;DHT22;7016;48.172;8.058;2024-01-10T11:50:27;1.50;99.90
13892;DHT22;7016;48.172;8.058;2024-01-10T11:56:41;1.80;99.90
13892;DHT22;7016;48.172;8.058;2024-01-10T11:59:27;1.90;99.90
13892;DHT22;7016;48.172;8.058;2024-01-10T12:02:17;2.50;99.90
13892;DHT22;7016;48.172;8.058;2024-01-10T12:05:04;2.10;99.90
13892;DHT22;7016;48.172;8.058;2024-01-10T12:07:51;2.20;99.90
13892;DHT22;7016;48.172;8.058;2024-01-10T12:10:38;2.20;99.90
13892;DHT22;7016;48.172;8.058;2024-01-10T12:13:25;2.20;99.90
13892;DHT22;7016;48.172;8.058;2024-01-10T12:16:14;2.20;99.90
13892;DHT22;7016;48.172;8.058;2024-01-10T12:19:01;2.30;99.90
13892;DHT22;7016;48.172;8.058;2024-01-10T12:21:51;2.40;99.90
13892;DHT22;7016;48.172;8.058;2024-01-10T12:24:48;2.40;99.90
13892;DHT22;7016;48.172;8.058;2024-01-10T12:27:34;2.40;99.90
13892;DHT22;7016;48.172;8.058;2024-01-10T12:30:21;2.50;99.90
13892;DHT22;7016;48.172;8.058;2024-01-10T12:33:09;2.50;99.90
13892;DHT22;7016;48.172;8.058;2024-01-10T12:36:08;2.50;99.90
13892;DHT22;7016;48.172;8.058;2024-01-10T12:38:55;2.40;99.90
13892;DHT22;7016;48.172;8.058;2024-01-10T12:41:42;2.60;99.90
13892;DHT22;7016;48.172;8.058;2024-01-10T12:44:30;2.60;99.90
13892;DHT22;7016;48.172;8.058;2024-01-10T12:47:23;2.60;99.90
13892;DHT22;7016;48.172;8.058;2024-01-10T12:50:10;2.60;99.90
13892;DHT22;7016;48.172;8.058;2024-01-10T12:52:57;2.70;99.90
13892;DHT22;7016;48.172;8.058;2024-01-10T12:55:43;2.70;99.90
13892;DHT22;7016;48.172;8.058;2024-01-10T12:58:31;2.70;99.90
13892;DHT22;7016;48.172;8.058;2024-01-10T13:01:17;2.80;99.90
13892;DHT22;7016;48.172;8.058;2024-01-10T13:04:04;2.80;99.90
13892;DHT22;7016;48.172;8.058;2024-01-10T13:06:50;2.90;99.90
13892;DHT22;7016;48.172;8.058;2024-01-10T13:09:36;3.00;99.90
13892;DHT22;7016;48.172;8.058;2024-01-10T13:12:23;2.90;99.90
13892;DHT22;7016;48.172;8.058;2024-01-10T13:15:09;3.00;99.90
13892;DHT22;7016;48.172;8.058;2024-01-10T13:17:56;2.90;99.90
13892;DHT22;7016;48.172;8.058;2024-01-10T13:20:43;2.90;99.90
13892;DHT22;7016;48.172;8.058;2024-01-10T13:23:30;2.70;99.90
13892;DHT22;7016;48.172;8.058;2024-01-10T13:26:16;2.70;99.90
13892;DHT22;7016;48.172;8.058;2024-01-10T13:29:02;2.60;99.90
13892;DHT22;7016;48.172;8.058;2024-01-10T13:31:48;2.60;99.90
13892;DHT22;7016;48.172;8.058;2024-01-10T13:34:35;2.50;99.90
13892;DHT22;7016;48.172;8.058;2024-01-10T13:37:21;2.50;99.90
13892;DHT22;7016;48.172;8.058;2024-01-10T13:40:11;2.50;99.90
13892;DHT22;7016;48.172;8.058;2024-01-10T13:43:00;2.30;99.90
13892;DHT22;7016;48.172;8.058;2024-01-10T13:45:49;2.30;99.90
13892;DHT22;7016;48.172;8.058;2024-01-10T13:48:35;2.30;99.90
13892;DHT22;7016;48.172;8.058;2024-01-10T13:51:22;2.30;99.90
13892;DHT22;7016;48.172;8.058;2024-01-10T13:54:08;2.10;99.90
13892;DHT22;7016;48.172;8.058;2024-01-10T13:56:54;2.10;99.90
13892;DHT22;7016;48.172;8.058;2024-01-10T13:59:41;2.10;99.90
13892;DHT22;7016;48.172;8.058;2024-01-10T14:02:28;2.10;99.90
13892;DHT22;7016;48.172;8.058;2024-01-10T14:05:14;1.90;99.90
13892;DHT22;7016;48.172;8.058;2024-01-10T14:08:00;1.90;99.90
13892;DHT22;7016;48.172;8.058;2024-01-10T14:10:47;1.90;99.90
13892;DHT22;7016;48.172;8.058;2024-01-10T14:13:33;1.80;99.90
13892;DHT22;7016;48.172;8.058;2024-01-10T14:16:21;1.80;99.90
13892;DHT22;7016;48.172;8.058;2024-01-10T14:19:07;1.70;99.90
13892;DHT22;7016;48.172;8.058;2024-01-10T14:21:53;1.70;99.90
13892;DHT22;7016;48.172;8.058;2024-01-10T14:24:39;1.60;99.90
13892;DHT22;7016;48.172;8.058;2024-01-10T14:27:25;1.60;99.90
13892;DHT22;7016;48.172;8.058;2024-01-10T14:30:12;1.60;99.90
13892;DHT22;7016;48.172;8.058;2024-01-10T14:35:46;1.60;99.90
13892;DHT22;7016;48.172;8.058;2024-01-10T14:38:32;1.60;99.90
13892;DHT22;7016;48.172;8.058;2024-01-10T14:41:18;1.60;99.90
13892;DHT22;7016;48.172;8.058;2024-01-10T14:44:05;1.70;99.90
13892;DHT22;7016;48.172;8.058;2024-01-10T14:46:51;1.80;99.90
13892;DHT22;7016;48.172;8.058;2024-01-10T14:49:37;1.70;99.90
13892;DHT22;7016;48.172;8.058;2024-01-10T14:52:23;1.60;99.90
13892;DHT22;7016;48.172;8.058;2024-01-10T14:55:11;1.60;99.90
13892;DHT22;7016;48.172;8.058;2024-01-10T14:57:57;1.60;99.90
13892;DHT22;7016;48.172;8.058;2024-01-10T15:00:43;1.50;99.90
13892;DHT22;7016;48.172;8.058;2024-01-10T15:03:30;1.60;99.90
13892;DHT22;7016;48.172;8.058;2024-01-10T15:06:16;1.60;99.90
13892;DHT22;7016;48.172;8.058;2024-01-10T15:09:02;1.70;99.90
13892;DHT22;7016;48.172;8.058;2024-01-10T15:11:48;1.90;99.90
13892;DHT22;7016;48.172;8.058;2024-01-10T15:14:37;1.70;99.90
13892;DHT22;7016;48.172;8.058;2024-01-10T15:17:24;1.70;99.90
13892;DHT22;7016;48.172;8.058;2024-01-10T15:20:10;1.70;99.90
13892;DHT22;7016;48.172;8.058;2024-01-10T15:22:56;1.70;99.90
13892;DHT22;7016;48.172;8.058;2024-01-10T15:25:43;1.70;99.90
13892;DHT22;7016;48.172;8.058;2024-01-10T15:28:29;1.70;99.90
13892;DHT22;7016;48.172;8.058;2024-01-10T15:31:17;1.70;99.90
13892;DHT22;7016;48.172;8.058;2024-01-10T15:34:03;1.60;99.90
13892;DHT22;7016;48.172;8.058;2024-01-10T15:36:49;1.70;99.90
13892;DHT22;7016;48.172;8.058;2024-01-10T15:39:36;1.70;99.90
13892;DHT22;7016;48.172;8.058;2024-01-10T15:42:22;1.80;99.90
13892;DHT22;7016;48.172;8.058;2024-01-10T15:45:11;1.70;99.90
13892;DHT22;7016;48.172;8.058;2024-01-10T15:47:57;1.70;99.90
13892;DHT22;7016;48.172;8.058;2024-01-10T15:50:43;1.70;99.90
13892;DHT22;7016;48.172;8.058;2024-01-10T15:53:29;1.60;99.90
13892;DHT22;7016;48.172;8.058;2024-01-10T15:56:17;1.60;99.90
13892;DHT22;7016;48.172;8.058;2024-01-10T15:59:05;1.60;99.90
13892;DHT22;7016;48.172;8.058;2024-01-10T16:01:52;1.50;99.90
13892;DHT22;7016;48.172;8.058;2024-01-10T16:04:40;1.50;99.90
13892;DHT22;7016;48.172;8.058;2024-01-10T16:07:26;1.50;99.90
13892;DHT22;7016;48.172;8.058;2024-01-10T16:10:13;1.50;99.90
13892;DHT22;7016;48.172;8.058;2024-01-10T16:12:59;1.50;99.90
13892;DHT22;7016;48.172;8.058;2024-01-10T16:15:45;1.40;99.90
13892;DHT22;7016;48.172;8.058;2024-01-10T16:18:31;1.30;99.90
13892;DHT22;7016;48.172;8.058;2024-01-10T16:21:19;1.40;99.90
13892;DHT22;7016;48.172;8.058;2024-01-10T16:24:06;1.30;99.90
13892;DHT22;7016;48.172;8.058;2024-01-10T16:26:54;1.30;99.90
13892;DHT22;7016;48.172;8.058;2024-01-10T16:29:40;1.20;99.90
13892;DHT22;7016;48.172;8.058;2024-01-10T16:32:26;1.20;99.90
13892;DHT22;7016;48.172;8.058;2024-01-10T16:35:12;1.10;99.90
13892;DHT22;7016;48.172;8.058;2024-01-10T16:38:00;1.10;99.90
13892;DHT22;7016;48.172;8.058;2024-01-10T16:40:47;1.10;99.90
13892;DHT22;7016;48.172;8.058;2024-01-10T16:43:33;1.20;99.90
13892;DHT22;7016;48.172;8.058;2024-01-10T16:46:19;1.10;99.90
13892;DHT22;7016;48.172;8.058;2024-01-10T16:49:05;1.10;99.90
13892;DHT22;7016;48.172;8.058;2024-01-10T16:51:51;1.10;99.90
13892;DHT22;7016;48.172;8.058;2024-01-10T16:54:37;0.90;99.90
13892;DHT22;7016;48.172;8.058;2024-01-10T16:57:23;1.00;99.90
13892;DHT22;7016;48.172;8.058;2024-01-10T17:00:10;1.00;99.90
13892;DHT22;7016;48.172;8.058;2024-01-10T17:02:56;1.00;99.90
13892;DHT22;7016;48.172;8.058;2024-01-10T17:05:44;0.90;99.90
13892;DHT22;7016;48.172;8.058;2024-01-10T17:08:30;0.90;99.90
13892;DHT22;7016;48.172;8.058;2024-01-10T17:11:16;0.80;99.90
13892;DHT22;7016;48.172;8.058;2024-01-10T17:14:03;0.80;99.90
13892;DHT22;7016;48.172;8.058;2024-01-10T17:16:49;0.70;99.90
13892;DHT22;7016;48.172;8.058;2024-01-10T17:19:36;0.80;99.90
13892;DHT22;7016;48.172;8.058;2024-01-10T17:22:22;0.60;99.90
13892;DHT22;7016;48.172;8.058;2024-01-10T17:25:08;0.60;99.90
13892;DHT22;7016;48.172;8.058;2024-01-10T17:27:55;0.60;99.90
13892;DHT22;7016;48.172;8.058;2024-01-10T17:30:42;0.60;99.90
13892;DHT22;7016;48.172;8.058;2024-01-10T17:33:28;0.60;99.90
13892;DHT22;7016;48.172;8.058;2024-01-10T17:36:14;0.60;99.90
13892;DHT22;7016;48.172;8.058;2024-01-10T17:39:01;0.70;99.90
13892;DHT22;7016;48.172;8.058;2024-01-10T17:41:47;0.60;99.90
13892;DHT22;7016;48.172;8.058;2024-01-10T17:44:33;0.60;99.90
13892;DHT22;7016;48.172;8.058;2024-01-10T17:47:23;0.60;99.90
13892;DHT22;7016;48.172;8.058;2024-01-10T17:50:10;0.50;99.90
13892;DHT22;7016;48.172;8.058;2024-01-10T17:52:56;0.50;99.90
13892;DHT22;7016;48.172;8.058;2024-01-10T17:55:43;0.40;99.90
13892;DHT22;7016;48.172;8.058;2024-01-10T17:58:29;0.40;99.90
13892;DHT22;7016;48.172;8.058;2024-01-10T18:01:15;0.40;99.90
13892;DHT22;7016;48.172;8.058;2024-01-10T18:04:01;0.40;99.90
13892;DHT22;7016;48.172;8.058;2024-01-10T18:06:48;0.30;99.90
13892;DHT22;7016;48.172;8.058;2024-01-10T18:09:34;0.30;99.90
13892;DHT22;7016;48.172;8.058;2024-01-10T18:12:21;0.40;99.90
13892;DHT22;7016;48.172;8.058;2024-01-10T18:15:07;0.30;99.90